DAL1356 KSLC-KSEA
Flight info
| Callsign | DAL1356 |
|---|---|
| Flight time | 1h 36m |
| Altitude | 36000 |
| Route | CGULL1 TWF PDT CHINS5 |
| Aircraft | A321/M-SDE3FGHIRWY/LB1 |
Departure
| Time | 2026-05-05 19:19 |
|---|---|
| Airport | Salt Lake City International Airport (KSLC) |
Arrival
| Time | 2026-05-05 20:56 |
|---|---|
| Airport | Seattle–Tacoma International Airport (KSEA) |
| Time | Latitude | Longitude | Altitude | Speed | Heading |
|---|---|---|---|---|---|
| 2026-05-05 19:05 | 40.78666 | -111.98052 | 4235 ft | 0 kts | 175° |
| 2026-05-05 19:12 | 40.78682 | -111.98054 | 4234 ft | 3 kts | 175° |
| 2026-05-05 19:12 | 40.78700 | -111.98056 | 4234 ft | 3 kts | 175° |
| 2026-05-05 19:12 | 40.78718 | -111.98053 | 4235 ft | 3 kts | 187° |
| 2026-05-05 19:13 | 40.78737 | -111.98050 | 4233 ft | 3 kts | 187° |
| 2026-05-05 19:13 | 40.78755 | -111.98047 | 4235 ft | 2 kts | 187° |
| 2026-05-05 19:13 | 40.78757 | -111.98046 | 4235 ft | 0 kts | 187° |
| 2026-05-05 19:14 | 40.78753 | -111.98044 | 4235 ft | 1 kts | 165° |
| 2026-05-05 19:14 | 40.78749 | -111.98019 | 4235 ft | 6 kts | 102° |
| 2026-05-05 19:15 | 40.78747 | -111.97930 | 4235 ft | 13 kts | 87° |
| 2026-05-05 19:15 | 40.78758 | -111.97775 | 4235 ft | 21 kts | 83° |
| 2026-05-05 19:15 | 40.78854 | -111.97678 | 4234 ft | 23 kts | 355° |
| 2026-05-05 19:15 | 40.78876 | -111.97682 | 4235 ft | 0 kts | 351° |
| 2026-05-05 19:16 | 40.78903 | -111.97688 | 4236 ft | 12 kts | 350° |
| 2026-05-05 19:16 | 40.79039 | -111.97718 | 4235 ft | 28 kts | 350° |
| 2026-05-05 19:16 | 40.79269 | -111.97742 | 4235 ft | 35 kts | 355° |
| 2026-05-05 19:16 | 40.79505 | -111.97766 | 4235 ft | 33 kts | 355° |
| 2026-05-05 19:17 | 40.79730 | -111.97794 | 4235 ft | 32 kts | 354° |
| 2026-05-05 19:17 | 40.79943 | -111.97822 | 4235 ft | 30 kts | 354° |
| 2026-05-05 19:17 | 40.80142 | -111.97845 | 4236 ft | 28 kts | 355° |
| 2026-05-05 19:17 | 40.80334 | -111.97840 | 4234 ft | 26 kts | 5° |
| 2026-05-05 19:18 | 40.80510 | -111.97835 | 4234 ft | 25 kts | 358° |
| 2026-05-05 19:18 | 40.80680 | -111.97859 | 4234 ft | 23 kts | 2° |
| 2026-05-05 19:18 | 40.80715 | -111.97719 | 4233 ft | 18 kts | 129° |
| 2026-05-05 19:18 | 40.80595 | -111.97678 | 4235 ft | 22 kts | 174° |
| 2026-05-05 19:19 | 40.80183 | -111.97625 | 4237 ft | 99 kts | 174° |
| 2026-05-05 19:19 | 40.79259 | -111.97520 | 4237 ft | 164 kts | 175° |
| 2026-05-05 19:19 | 40.78040 | -111.97383 | 4793 ft | 177 kts | 175° |
| 2026-05-05 19:19 | 40.76803 | -111.97212 | 5657 ft | 180 kts | 175° |
| 2026-05-05 19:20 | 40.75554 | -111.97448 | 6182 ft | 192 kts | 205° |
| 2026-05-05 19:20 | 40.74406 | -111.98519 | 6317 ft | 213 kts | 219° |
| 2026-05-05 19:20 | 40.73422 | -112.00074 | 6439 ft | 234 kts | 245° |
| 2026-05-05 19:20 | 40.73203 | -112.02278 | 6619 ft | 258 kts | 282° |
| 2026-05-05 19:21 | 40.74077 | -112.04412 | 7017 ft | 276 kts | 313° |
| 2026-05-05 19:21 | 40.75473 | -112.06192 | 7709 ft | 282 kts | 317° |
| 2026-05-05 19:21 | 40.76967 | -112.07903 | 8454 ft | 286 kts | 319° |
| 2026-05-05 19:21 | 40.78502 | -112.09601 | 9208 ft | 290 kts | 320° |
| 2026-05-05 19:22 | 40.80060 | -112.11319 | 9955 ft | 293 kts | 319° |
| 2026-05-05 19:22 | 40.81652 | -112.13098 | 10358 ft | 310 kts | 319° |
| 2026-05-05 19:22 | 40.83351 | -112.15027 | 10528 ft | 333 kts | 318° |
| 2026-05-05 19:22 | 40.85159 | -112.17107 | 10646 ft | 356 kts | 318° |
| 2026-05-05 19:23 | 40.87054 | -112.19306 | 11046 ft | 367 kts | 318° |
| 2026-05-05 19:23 | 40.88981 | -112.21549 | 11717 ft | 371 kts | 317° |
| 2026-05-05 19:23 | 40.90919 | -112.23811 | 12450 ft | 372 kts | 317° |
| 2026-05-05 19:23 | 40.92867 | -112.26089 | 13147 ft | 374 kts | 318° |
| 2026-05-05 19:24 | 40.94799 | -112.28350 | 13777 ft | 377 kts | 318° |
| 2026-05-05 19:24 | 40.96802 | -112.30688 | 14400 ft | 380 kts | 318° |
| 2026-05-05 19:24 | 40.98768 | -112.32979 | 14993 ft | 384 kts | 319° |
| 2026-05-05 19:24 | 41.00774 | -112.35320 | 15577 ft | 386 kts | 319° |
| 2026-05-05 19:25 | 41.02794 | -112.37681 | 16130 ft | 389 kts | 319° |
| 2026-05-05 19:25 | 41.04830 | -112.40066 | 16682 ft | 392 kts | 319° |
| 2026-05-05 19:25 | 41.06903 | -112.42426 | 17194 ft | 395 kts | 323° |
| 2026-05-05 19:25 | 41.09189 | -112.44454 | 17734 ft | 396 kts | 328° |
| 2026-05-05 19:26 | 41.11529 | -112.46406 | 18267 ft | 398 kts | 328° |
| 2026-05-05 19:26 | 41.13879 | -112.48373 | 18772 ft | 401 kts | 328° |
| 2026-05-05 19:26 | 41.16246 | -112.50355 | 19270 ft | 403 kts | 328° |
| 2026-05-05 19:26 | 41.18587 | -112.52429 | 19733 ft | 406 kts | 325° |
| 2026-05-05 19:27 | 41.20872 | -112.54654 | 20196 ft | 409 kts | 323° |
| 2026-05-05 19:27 | 41.23124 | -112.56979 | 20641 ft | 411 kts | 322° |
| 2026-05-05 19:27 | 41.25374 | -112.59358 | 21089 ft | 414 kts | 322° |
| 2026-05-05 19:27 | 41.27604 | -112.61798 | 21518 ft | 417 kts | 317° |
| 2026-05-05 19:28 | 41.29605 | -112.64611 | 21936 ft | 421 kts | 312° |
| 2026-05-05 19:28 | 41.31562 | -112.67517 | 22355 ft | 423 kts | 313° |
| 2026-05-05 19:28 | 41.33546 | -112.70423 | 22763 ft | 426 kts | 313° |
| 2026-05-05 19:28 | 41.35552 | -112.73341 | 23151 ft | 428 kts | 313° |
| 2026-05-05 19:29 | 41.37571 | -112.76277 | 23550 ft | 431 kts | 313° |
| 2026-05-05 19:29 | 41.39597 | -112.79228 | 23928 ft | 433 kts | 313° |
| 2026-05-05 19:29 | 41.41626 | -112.82216 | 24305 ft | 436 kts | 312° |
| 2026-05-05 19:29 | 41.43640 | -112.85252 | 24686 ft | 438 kts | 312° |
| 2026-05-05 19:30 | 41.45645 | -112.88325 | 25056 ft | 440 kts | 312° |
| 2026-05-05 19:30 | 41.47646 | -112.91427 | 25412 ft | 442 kts | 312° |
| 2026-05-05 19:30 | 41.49652 | -112.94547 | 25757 ft | 444 kts | 312° |
| 2026-05-05 19:30 | 41.51671 | -112.97674 | 26107 ft | 446 kts | 313° |
| 2026-05-05 19:31 | 41.53678 | -113.00765 | 26449 ft | 447 kts | 313° |
| 2026-05-05 19:31 | 41.55728 | -113.03904 | 26792 ft | 449 kts | 314° |
| 2026-05-05 19:31 | 41.57780 | -113.07050 | 27133 ft | 450 kts | 314° |
| 2026-05-05 19:31 | 41.59840 | -113.10212 | 27462 ft | 452 kts | 314° |
| 2026-05-05 19:32 | 41.61894 | -113.13374 | 27902 ft | 449 kts | 314° |
| 2026-05-05 19:32 | 41.63937 | -113.16529 | 28350 ft | 447 kts | 315° |
| 2026-05-05 19:32 | 41.65965 | -113.19666 | 28762 ft | 445 kts | 315° |
| 2026-05-05 19:32 | 41.67982 | -113.22794 | 29163 ft | 443 kts | 316° |
| 2026-05-05 19:33 | 41.69989 | -113.25912 | 29565 ft | 441 kts | 316° |
| 2026-05-05 19:33 | 41.71991 | -113.29015 | 29965 ft | 440 kts | 316° |
| 2026-05-05 19:33 | 41.73987 | -113.32104 | 30354 ft | 438 kts | 317° |
| 2026-05-05 19:33 | 41.75973 | -113.35181 | 30747 ft | 436 kts | 317° |
| 2026-05-05 19:34 | 41.77950 | -113.38247 | 31142 ft | 434 kts | 317° |
| 2026-05-05 19:34 | 41.79918 | -113.41306 | 31514 ft | 433 kts | 317° |
| 2026-05-05 19:34 | 41.81882 | -113.44362 | 31870 ft | 431 kts | 317° |
| 2026-05-05 19:35 | 41.85783 | -113.50436 | 32579 ft | 429 kts | 317° |
| 2026-05-05 19:35 | 41.87721 | -113.53468 | 32930 ft | 427 kts | 317° |
| 2026-05-05 19:35 | 41.89650 | -113.56495 | 33284 ft | 426 kts | 318° |
| 2026-05-05 19:35 | 41.91575 | -113.59511 | 33654 ft | 425 kts | 318° |
| 2026-05-05 19:36 | 41.93469 | -113.62484 | 34010 ft | 424 kts | 318° |
| 2026-05-05 19:36 | 41.95407 | -113.65525 | 34348 ft | 423 kts | 318° |
| 2026-05-05 19:36 | 41.97295 | -113.68485 | 34646 ft | 423 kts | 318° |
| 2026-05-05 19:36 | 41.99207 | -113.71486 | 34947 ft | 423 kts | 317° |
| 2026-05-05 19:37 | 42.01117 | -113.74486 | 35219 ft | 423 kts | 317° |
| 2026-05-05 19:37 | 42.03028 | -113.77494 | 35502 ft | 422 kts | 317° |
| 2026-05-05 19:37 | 42.04934 | -113.80498 | 35774 ft | 422 kts | 317° |
| 2026-05-05 19:37 | 42.06837 | -113.83504 | 35908 ft | 422 kts | 317° |
| 2026-05-05 19:38 | 42.08740 | -113.86514 | 35931 ft | 422 kts | 316° |
| 2026-05-05 19:38 | 42.12545 | -113.92537 | 35926 ft | 422 kts | 316° |
| 2026-05-05 19:39 | 42.16347 | -113.98565 | 35923 ft | 422 kts | 316° |
| 2026-05-05 19:39 | 42.20160 | -114.04593 | 35924 ft | 422 kts | 317° |
| 2026-05-05 19:40 | 42.23968 | -114.10613 | 35924 ft | 422 kts | 316° |
| 2026-05-05 19:40 | 42.27773 | -114.16660 | 35924 ft | 422 kts | 316° |
| 2026-05-05 19:41 | 42.31572 | -114.22704 | 35936 ft | 422 kts | 316° |
| 2026-05-05 19:41 | 42.35371 | -114.28749 | 35940 ft | 422 kts | 316° |
| 2026-05-05 19:42 | 42.39175 | -114.34802 | 35942 ft | 422 kts | 316° |
| 2026-05-05 19:42 | 42.42960 | -114.40864 | 35947 ft | 422 kts | 316° |
| 2026-05-05 19:43 | 42.46713 | -114.46898 | 35948 ft | 421 kts | 316° |
| 2026-05-05 19:43 | 42.50767 | -114.52517 | 35949 ft | 415 kts | 323° |
| 2026-05-05 19:44 | 42.54980 | -114.57875 | 35949 ft | 415 kts | 323° |
| 2026-05-05 19:44 | 42.59183 | -114.63242 | 35950 ft | 415 kts | 323° |
| 2026-05-05 19:45 | 42.63369 | -114.68631 | 35952 ft | 415 kts | 323° |
| 2026-05-05 19:45 | 42.67551 | -114.74018 | 35953 ft | 414 kts | 323° |
| 2026-05-05 19:46 | 42.71731 | -114.79400 | 35953 ft | 414 kts | 323° |
| 2026-05-05 19:46 | 42.75899 | -114.84786 | 35957 ft | 413 kts | 323° |
| 2026-05-05 19:47 | 42.80061 | -114.90177 | 35958 ft | 413 kts | 323° |
| 2026-05-05 19:47 | 42.84220 | -114.95561 | 35957 ft | 412 kts | 323° |
| 2026-05-05 19:48 | 42.88370 | -115.00959 | 35958 ft | 412 kts | 323° |
| 2026-05-05 19:48 | 42.92514 | -115.06363 | 35956 ft | 412 kts | 323° |
| 2026-05-05 19:49 | 42.96661 | -115.11762 | 35959 ft | 412 kts | 323° |
| 2026-05-05 19:49 | 43.00098 | -115.16247 | 35961 ft | 411 kts | 323° |
| 2026-05-05 19:50 | 43.04231 | -115.21655 | 35960 ft | 411 kts | 323° |
| 2026-05-05 19:50 | 43.08354 | -115.27066 | 35954 ft | 411 kts | 323° |
| 2026-05-05 19:51 | 43.12472 | -115.32471 | 35948 ft | 410 kts | 323° |
| 2026-05-05 19:51 | 43.16582 | -115.37877 | 35946 ft | 409 kts | 323° |
| 2026-05-05 19:52 | 43.20677 | -115.43288 | 35946 ft | 409 kts | 323° |
| 2026-05-05 19:52 | 43.24762 | -115.48711 | 35948 ft | 408 kts | 323° |
| 2026-05-05 19:53 | 43.28849 | -115.54110 | 35969 ft | 408 kts | 323° |
| 2026-05-05 19:53 | 43.32932 | -115.59511 | 35961 ft | 408 kts | 323° |
| 2026-05-05 19:54 | 43.37005 | -115.64928 | 35953 ft | 407 kts | 323° |
| 2026-05-05 19:54 | 43.41067 | -115.70357 | 35949 ft | 407 kts | 323° |
| 2026-05-05 19:55 | 43.45124 | -115.75772 | 35948 ft | 406 kts | 323° |
| 2026-05-05 19:55 | 43.49177 | -115.81193 | 35948 ft | 406 kts | 323° |
| 2026-05-05 19:56 | 43.53227 | -115.86613 | 35949 ft | 406 kts | 323° |
| 2026-05-05 19:56 | 43.57236 | -115.92001 | 35949 ft | 405 kts | 323° |
| 2026-05-05 19:57 | 43.61265 | -115.97429 | 35950 ft | 405 kts | 323° |
| 2026-05-05 19:57 | 43.65282 | -116.02848 | 35947 ft | 403 kts | 323° |
| 2026-05-05 19:58 | 43.69296 | -116.08256 | 35944 ft | 403 kts | 323° |
| 2026-05-05 19:58 | 43.73303 | -116.13679 | 35940 ft | 403 kts | 323° |
| 2026-05-05 19:59 | 43.77307 | -116.19112 | 35939 ft | 403 kts | 323° |
| 2026-05-05 19:59 | 43.81307 | -116.24549 | 35940 ft | 403 kts | 323° |
| 2026-05-05 20:00 | 43.85307 | -116.29998 | 35936 ft | 403 kts | 323° |
| 2026-05-05 20:00 | 43.89304 | -116.35435 | 35935 ft | 403 kts | 323° |
| 2026-05-05 20:01 | 43.93298 | -116.40895 | 35933 ft | 403 kts | 323° |
| 2026-05-05 20:01 | 43.97283 | -116.46358 | 35929 ft | 403 kts | 323° |
| 2026-05-05 20:02 | 44.01263 | -116.51833 | 35926 ft | 403 kts | 323° |
| 2026-05-05 20:02 | 44.05246 | -116.57322 | 35937 ft | 403 kts | 322° |
| 2026-05-05 20:03 | 44.09224 | -116.62794 | 35938 ft | 402 kts | 322° |
| 2026-05-05 20:03 | 44.13192 | -116.68261 | 35934 ft | 401 kts | 322° |
| 2026-05-05 20:04 | 44.17149 | -116.73743 | 35927 ft | 401 kts | 322° |
| 2026-05-05 20:04 | 44.21079 | -116.79200 | 35921 ft | 401 kts | 322° |
| 2026-05-05 20:05 | 44.25034 | -116.84700 | 35914 ft | 402 kts | 322° |
| 2026-05-05 20:05 | 44.28991 | -116.90205 | 35913 ft | 401 kts | 322° |
| 2026-05-05 20:06 | 44.32949 | -116.95715 | 35916 ft | 402 kts | 322° |
| 2026-05-05 20:06 | 44.36907 | -117.01245 | 35918 ft | 402 kts | 322° |
| 2026-05-05 20:07 | 44.40864 | -117.06789 | 35922 ft | 403 kts | 322° |
| 2026-05-05 20:07 | 44.44829 | -117.12349 | 35926 ft | 403 kts | 322° |
| 2026-05-05 20:08 | 44.48791 | -117.17912 | 35934 ft | 404 kts | 322° |
| 2026-05-05 20:08 | 44.52753 | -117.23490 | 35935 ft | 404 kts | 322° |
| 2026-05-05 20:09 | 44.56713 | -117.29089 | 35941 ft | 404 kts | 322° |
| 2026-05-05 20:09 | 44.60671 | -117.34691 | 35948 ft | 404 kts | 321° |
| 2026-05-05 20:10 | 44.64599 | -117.40262 | 35975 ft | 405 kts | 321° |
| 2026-05-05 20:10 | 44.68562 | -117.45892 | 35980 ft | 405 kts | 321° |
| 2026-05-05 20:11 | 44.72527 | -117.51523 | 35979 ft | 405 kts | 321° |
| 2026-05-05 20:11 | 44.76484 | -117.57173 | 35988 ft | 405 kts | 321° |
| 2026-05-05 20:12 | 44.80434 | -117.62826 | 35995 ft | 405 kts | 321° |
| 2026-05-05 20:12 | 44.84384 | -117.68492 | 35987 ft | 405 kts | 321° |
| 2026-05-05 20:13 | 44.88339 | -117.74161 | 35986 ft | 405 kts | 321° |
| 2026-05-05 20:13 | 44.92289 | -117.79830 | 35990 ft | 405 kts | 321° |
| 2026-05-05 20:14 | 44.96232 | -117.85508 | 35992 ft | 405 kts | 321° |
| 2026-05-05 20:14 | 45.00142 | -117.91160 | 35992 ft | 404 kts | 321° |
| 2026-05-05 20:15 | 45.04091 | -117.96876 | 35986 ft | 403 kts | 321° |
| 2026-05-05 20:15 | 45.07979 | -118.02526 | 35977 ft | 404 kts | 321° |
| 2026-05-05 20:16 | 45.11898 | -118.08215 | 35989 ft | 404 kts | 321° |
| 2026-05-05 20:16 | 45.15832 | -118.13938 | 35980 ft | 405 kts | 321° |
| 2026-05-05 20:17 | 45.19762 | -118.19672 | 35979 ft | 406 kts | 320° |
| 2026-05-05 20:17 | 45.23688 | -118.25425 | 35984 ft | 406 kts | 320° |
| 2026-05-05 20:18 | 45.27608 | -118.31182 | 35986 ft | 405 kts | 321° |
| 2026-05-05 20:18 | 45.31520 | -118.36926 | 35990 ft | 405 kts | 320° |
| 2026-05-05 20:19 | 45.35431 | -118.42693 | 35996 ft | 405 kts | 320° |
| 2026-05-05 20:19 | 45.39319 | -118.48417 | 36003 ft | 405 kts | 320° |
| 2026-05-05 20:20 | 45.43235 | -118.54190 | 36008 ft | 405 kts | 320° |
| 2026-05-05 20:20 | 45.47149 | -118.59979 | 36010 ft | 406 kts | 320° |
| 2026-05-05 20:21 | 45.51048 | -118.65782 | 36011 ft | 405 kts | 320° |
| 2026-05-05 20:21 | 45.54947 | -118.71586 | 36005 ft | 405 kts | 320° |
| 2026-05-05 20:22 | 45.58848 | -118.77405 | 35998 ft | 405 kts | 320° |
| 2026-05-05 20:22 | 45.62748 | -118.83227 | 35993 ft | 406 kts | 320° |
| 2026-05-05 20:23 | 45.66642 | -118.89064 | 35975 ft | 406 kts | 320° |
| 2026-05-05 20:23 | 45.70514 | -118.94895 | 35969 ft | 408 kts | 319° |
| 2026-05-05 20:24 | 45.74262 | -119.01047 | 35970 ft | 411 kts | 316° |
| 2026-05-05 20:24 | 45.77908 | -119.07362 | 35964 ft | 411 kts | 316° |
| 2026-05-05 20:25 | 45.81568 | -119.13661 | 35957 ft | 411 kts | 316° |
| 2026-05-05 20:25 | 45.85264 | -119.19926 | 35948 ft | 412 kts | 317° |
| 2026-05-05 20:26 | 45.88968 | -119.26193 | 35943 ft | 412 kts | 316° |
| 2026-05-05 20:26 | 45.92671 | -119.32494 | 35942 ft | 413 kts | 316° |
| 2026-05-05 20:27 | 45.96367 | -119.38811 | 35943 ft | 413 kts | 316° |
| 2026-05-05 20:27 | 46.00069 | -119.45146 | 35942 ft | 414 kts | 316° |
| 2026-05-05 20:28 | 46.03771 | -119.51485 | 35949 ft | 414 kts | 316° |
| 2026-05-05 20:28 | 46.07468 | -119.57840 | 35956 ft | 414 kts | 316° |
| 2026-05-05 20:29 | 46.11161 | -119.64203 | 35950 ft | 414 kts | 316° |
| 2026-05-05 20:29 | 46.14855 | -119.70574 | 35946 ft | 415 kts | 316° |
| 2026-05-05 20:30 | 46.18544 | -119.76962 | 35946 ft | 415 kts | 316° |
| 2026-05-05 20:30 | 46.22210 | -119.83325 | 35943 ft | 415 kts | 316° |
| 2026-05-05 20:31 | 46.25899 | -119.89740 | 35943 ft | 415 kts | 316° |
| 2026-05-05 20:31 | 46.29594 | -119.96167 | 35947 ft | 415 kts | 316° |
| 2026-05-05 20:32 | 46.33284 | -120.02600 | 35950 ft | 416 kts | 315° |
| 2026-05-05 20:32 | 46.36970 | -120.09053 | 35952 ft | 416 kts | 315° |
| 2026-05-05 20:33 | 46.40647 | -120.15517 | 35943 ft | 416 kts | 315° |
| 2026-05-05 20:33 | 46.44328 | -120.21989 | 35948 ft | 416 kts | 315° |
| 2026-05-05 20:34 | 46.48010 | -120.28473 | 35956 ft | 416 kts | 315° |
| 2026-05-05 20:34 | 46.51689 | -120.34976 | 35959 ft | 417 kts | 315° |
| 2026-05-05 20:35 | 46.55361 | -120.41489 | 35961 ft | 417 kts | 315° |
| 2026-05-05 20:35 | 46.58925 | -120.48068 | 35962 ft | 419 kts | 312° |
| 2026-05-05 20:36 | 46.62252 | -120.55054 | 35964 ft | 421 kts | 310° |
| 2026-05-05 20:36 | 46.65510 | -120.62139 | 35967 ft | 421 kts | 310° |
| 2026-05-05 20:37 | 46.68810 | -120.69176 | 35972 ft | 421 kts | 310° |
| 2026-05-05 20:37 | 46.72144 | -120.76169 | 35975 ft | 420 kts | 310° |
| 2026-05-05 20:38 | 46.75480 | -120.83171 | 35983 ft | 420 kts | 310° |
| 2026-05-05 20:38 | 46.78805 | -120.90192 | 35985 ft | 421 kts | 310° |
| 2026-05-05 20:38 | 46.80462 | -120.93708 | 35797 ft | 421 kts | 310° |
| 2026-05-05 20:39 | 46.82115 | -120.97227 | 35547 ft | 421 kts | 310° |
| 2026-05-05 20:39 | 46.83772 | -121.00758 | 35298 ft | 422 kts | 310° |
| 2026-05-05 20:39 | 46.85427 | -121.04289 | 34783 ft | 421 kts | 310° |
| 2026-05-05 20:39 | 46.87085 | -121.07829 | 33840 ft | 421 kts | 309° |
| 2026-05-05 20:40 | 46.88738 | -121.11358 | 32880 ft | 421 kts | 309° |
| 2026-05-05 20:40 | 46.90388 | -121.14883 | 31909 ft | 419 kts | 309° |
| 2026-05-05 20:40 | 46.91477 | -121.17207 | 31280 ft | 418 kts | 309° |
| 2026-05-05 20:40 | 46.93113 | -121.20710 | 30288 ft | 417 kts | 309° |
| 2026-05-05 20:41 | 46.94747 | -121.24213 | 29197 ft | 416 kts | 309° |
| 2026-05-05 20:41 | 46.96378 | -121.27714 | 28150 ft | 416 kts | 309° |
| 2026-05-05 20:41 | 46.98007 | -121.31210 | 27070 ft | 415 kts | 309° |
| 2026-05-05 20:41 | 46.99634 | -121.34705 | 25965 ft | 416 kts | 309° |
| 2026-05-05 20:42 | 47.01277 | -121.38240 | 24848 ft | 423 kts | 308° |
| 2026-05-05 20:42 | 47.02942 | -121.41835 | 23714 ft | 430 kts | 309° |
| 2026-05-05 20:42 | 47.04632 | -121.45488 | 22675 ft | 434 kts | 308° |
| 2026-05-05 20:42 | 47.06317 | -121.49145 | 21848 ft | 431 kts | 308° |
| 2026-05-05 20:43 | 47.07988 | -121.52773 | 21041 ft | 428 kts | 308° |
| 2026-05-05 20:43 | 47.09651 | -121.56383 | 20230 ft | 426 kts | 308° |
| 2026-05-05 20:43 | 47.11302 | -121.59967 | 19435 ft | 422 kts | 308° |
| 2026-05-05 20:43 | 47.12941 | -121.63527 | 18664 ft | 419 kts | 308° |
| 2026-05-05 20:44 | 47.14570 | -121.67070 | 17803 ft | 418 kts | 308° |
| 2026-05-05 20:44 | 47.16169 | -121.70553 | 17077 ft | 414 kts | 308° |
| 2026-05-05 20:44 | 47.17765 | -121.74047 | 16373 ft | 410 kts | 308° |
| 2026-05-05 20:44 | 47.19343 | -121.77510 | 15663 ft | 405 kts | 307° |
| 2026-05-05 20:45 | 47.22445 | -121.84311 | 14048 ft | 401 kts | 307° |
| 2026-05-05 20:45 | 47.24009 | -121.87736 | 13168 ft | 402 kts | 306° |
| 2026-05-05 20:45 | 47.25533 | -121.91080 | 13003 ft | 384 kts | 306° |
| 2026-05-05 20:46 | 47.26981 | -121.94271 | 12889 ft | 366 kts | 306° |
| 2026-05-05 20:46 | 47.28364 | -121.97323 | 12759 ft | 351 kts | 305° |
| 2026-05-05 20:46 | 47.29692 | -122.00252 | 12636 ft | 337 kts | 306° |
| 2026-05-05 20:46 | 47.30966 | -122.03063 | 12507 ft | 324 kts | 305° |
| 2026-05-05 20:47 | 47.32191 | -122.05769 | 12385 ft | 312 kts | 305° |
| 2026-05-05 20:47 | 47.33372 | -122.08378 | 12251 ft | 301 kts | 305° |
| 2026-05-05 20:47 | 47.34528 | -122.10909 | 12011 ft | 294 kts | 308° |
| 2026-05-05 20:47 | 47.35956 | -122.13010 | 11948 ft | 289 kts | 324° |
| 2026-05-05 20:48 | 47.37470 | -122.14968 | 11976 ft | 292 kts | 312° |
| 2026-05-05 20:48 | 47.38697 | -122.17361 | 12006 ft | 293 kts | 305° |
| 2026-05-05 20:48 | 47.39792 | -122.19903 | 12028 ft | 293 kts | 302° |
| 2026-05-05 20:48 | 47.40875 | -122.22459 | 12053 ft | 294 kts | 304° |
| 2026-05-05 20:49 | 47.41993 | -122.24990 | 11683 ft | 295 kts | 304° |
| 2026-05-05 20:49 | 47.43125 | -122.27513 | 11252 ft | 295 kts | 304° |
| 2026-05-05 20:49 | 47.44257 | -122.30029 | 10834 ft | 294 kts | 304° |
| 2026-05-05 20:49 | 47.45386 | -122.32540 | 10430 ft | 293 kts | 304° |
| 2026-05-05 20:50 | 47.46495 | -122.35018 | 10021 ft | 292 kts | 304° |
| 2026-05-05 20:50 | 47.47618 | -122.37536 | 9421 ft | 298 kts | 303° |
| 2026-05-05 20:50 | 47.48780 | -122.40149 | 8616 ft | 310 kts | 303° |
| 2026-05-05 20:50 | 47.49994 | -122.42854 | 7769 ft | 321 kts | 306° |
| 2026-05-05 20:51 | 47.51676 | -122.45048 | 6910 ft | 331 kts | 333° |
| 2026-05-05 20:51 | 47.53909 | -122.45915 | 6241 ft | 331 kts | 353° |
| 2026-05-05 20:51 | 47.56103 | -122.46061 | 6040 ft | 299 kts | 1° |
| 2026-05-05 20:51 | 47.57990 | -122.45366 | 5985 ft | 265 kts | 27° |
| 2026-05-05 20:52 | 47.59391 | -122.43851 | 6004 ft | 235 kts | 45° |
| 2026-05-05 20:52 | 47.60353 | -122.41989 | 6013 ft | 224 kts | 61° |
| 2026-05-05 20:52 | 47.60878 | -122.39849 | 6002 ft | 221 kts | 79° |
| 2026-05-05 20:52 | 47.60914 | -122.37586 | 6002 ft | 220 kts | 99° |
| 2026-05-05 20:53 | 47.60449 | -122.35438 | 6002 ft | 220 kts | 118° |
| 2026-05-05 20:53 | 47.59538 | -122.33636 | 6000 ft | 219 kts | 137° |
| 2026-05-05 20:53 | 47.58287 | -122.32364 | 5988 ft | 219 kts | 156° |
| 2026-05-05 20:53 | 47.56824 | -122.31678 | 5469 ft | 227 kts | 169° |
| 2026-05-05 20:54 | 47.55175 | -122.31419 | 4448 ft | 244 kts | 178° |
| 2026-05-05 20:54 | 47.53539 | -122.31442 | 3634 ft | 219 kts | 182° |
| 2026-05-05 20:54 | 47.52085 | -122.31523 | 2728 ft | 202 kts | 183° |
| 2026-05-05 20:54 | 47.50729 | -122.31637 | 2088 ft | 183 kts | 182° |
| 2026-05-05 20:55 | 47.49529 | -122.31694 | 1569 ft | 169 kts | 188° |
| 2026-05-05 20:55 | 47.48380 | -122.31778 | 1051 ft | 161 kts | 178° |
| 2026-05-05 20:55 | 47.47298 | -122.31750 | 701 ft | 149 kts | 184° |
| 2026-05-05 20:55 | 47.46306 | -122.31777 | 439 ft | 138 kts | 181° |
| 2026-05-05 20:56 | 47.45491 | -122.31788 | 394 ft | 65 kts | 181° |
| 2026-05-05 20:56 | 47.45220 | -122.31795 | 392 ft | 52 kts | 181° |
| 2026-05-05 20:56 | 47.44883 | -122.31747 | 391 ft | 44 kts | 155° |
| 2026-05-05 20:56 | 47.44705 | -122.31574 | 394 ft | 25 kts | 137° |
| 2026-05-05 20:57 | 47.44648 | -122.31349 | 393 ft | 20 kts | 77° |
| 2026-05-05 20:57 | 47.44647 | -122.31197 | 394 ft | 15 kts | 106° |
| 2026-05-05 20:57 | 47.44598 | -122.31061 | 394 ft | 19 kts | 124° |
| 2026-05-05 20:57 | 47.44456 | -122.30953 | 392 ft | 32 kts | 152° |
| 2026-05-05 20:58 | 47.44347 | -122.30693 | 393 ft | 29 kts | 87° |
| 2026-05-05 20:58 | 47.44298 | -122.30468 | 390 ft | 18 kts | 121° |
| 2026-05-05 20:58 | 47.44265 | -122.30417 | 394 ft | 0 kts | 134° |